Home   Weather   Bosnia-Herzegovina   Banja Luka   Past weeks
Flag for Bosnia-Herzegovina

Past Weather in Banja Luka, Bosnia-Herzegovina — Yesterday and Last 2 Weeks

Currently: 64 °F. Passing clouds. (Weather station: Banja Luka, Bosnia-Herzegovina). See more current weather

Past Weather in Banja Luka — Graph

°F

Banja Luka Temperature Yesterday

Maximum temperature yesterday: 84 °F (at 2:30 pm)
Minimum temperature yesterday: 52 °F (at 6:00 am)
Average temperature yesterday: 69 °F

High & Low Weather Summary for the Past Weeks

 TemperatureHumidityPressure
High97 °F (Aug 5, 2:00 pm)100% (Jul 30, 5:00 am)30.18 "Hg (Jul 30, 5:00 am)
Low52 °F (Aug 12, 6:00 am)22% (Aug 5, 3:00 pm)29.86 "Hg (Jul 30, 4:00 am)
Average74 °F66%30.02 "Hg
* Reported Jul 29 7:00 am — Aug 13 7:00 am, Banja Luka. Weather by CustomWeather, © 2022

Note: Actual official high and low records may vary slightly from our data, if they occured in-between our weather recording intervals... More about our weather records

Banja Luka Weather History for the Previous 24 Hours

Scroll right to see more
 ConditionsComfort  
Time TempWeatherWind HumidityBarometerVisibility
7:00 am
Sat, Aug 13
61 °FClear.2 mph100%29.95 "Hg5 mi
6:30 am61 °FClear.1 mph100%29.95 "Hg5 mi
6:00 am61 °FClear.2 mph100%29.95 "Hg4 mi
5:30 am61 °FClear.2 mph100%29.95 "Hg4 mi
5:00 am61 °FClear.1 mph100%29.95 "Hg10 mi
4:30 am61 °FClear.1 mph100%29.95 "Hg10 mi
4:00 am61 °FClear.2 mph100%29.95 "Hg10 mi
3:30 am63 °FClear.1 mph100%29.98 "Hg10 mi
3:00 am63 °FClear.2 mph100%29.98 "Hg10 mi
1:30 am63 °FClear.2 mph100%30.01 "Hg10 mi
1:00 am63 °FClear.5 mph100%30.01 "Hg10 mi
12:30 am63 °FLight rain. Clear.3 mph100%30.01 "HgN/A
12:00 am63 °FLight rain. Clear.3 mph100%30.01 "HgN/A
11:30 pm
Fri, Aug 12
63 °FRain showers. Passing clouds.7 mph100%30.01 "Hg4 mi
11:00 pm64 °FRain showers. Passing clouds.10 mph94%30.01 "Hg4 mi
10:30 pm64 °FRain showers. Passing clouds.14 mph94%30.01 "Hg4 mi
10:00 pm68 °FThunderstorms. Passing clouds.7 mph78%30.01 "Hg3 mi
9:30 pm72 °FSprinkles. Passing clouds.3 mph61%29.98 "HgN/A
9:00 pm73 °FPassing clouds.3 mph53%29.95 "HgN/A
8:30 pm73 °FClear.3 mph57%29.95 "Hg10 mi
8:00 pm77 °FSunny.1 mph42%29.95 "Hg10 mi
7:00 pm81 °FPassing clouds.7 mph37%29.95 "HgN/A
6:30 pm81 °FSunny.7 mph37%29.95 "Hg10 mi
6:00 pm81 °FPassing clouds.6 mph37%29.95 "HgN/A
5:30 pm82 °FPassing clouds.7 mph32%29.95 "HgN/A
5:00 pm82 °FPassing clouds.8 mph32%29.95 "HgN/A
4:30 pm82 °FPassing clouds.7 mph32%29.95 "HgN/A
4:00 pm82 °FPassing clouds.10 mph32%29.95 "HgN/A
3:30 pm82 °FSunny.8 mph32%29.95 "Hg10 mi
3:00 pm82 °FPassing clouds.8 mph26%29.98 "HgN/A
2:30 pm84 °FPassing clouds.8 mph27%29.98 "HgN/A
2:00 pm82 °FPassing clouds.10 mph30%29.98 "HgN/A
1:00 pm81 °FPassing clouds.7 mph37%30.01 "HgN/A
12:30 pm81 °FPassing clouds.8 mph37%30.01 "HgN/A
12:00 pm81 °FSunny.5 mph37%30.01 "Hg10 mi
11:00 am75 °FSunny.3 mph44%30.04 "Hg10 mi
10:30 am73 °FSunny.3 mph47%30.04 "Hg10 mi
10:00 am72 °FPassing clouds.3 mph53%30.04 "HgN/A
9:30 am70 °FSunny.3 mph57%30.04 "Hg10 mi
9:00 am70 °FSunny.2 mph60%30.04 "Hg10 mi
8:30 am64 °FSunny.2 mph73%30.04 "Hg10 mi
8:00 am61 °FSunny.1 mph83%30.04 "Hg10 mi
Weather by CustomWeather, © 2022

See weather overview